CAL5314 RCTP-RJGG
Flight info
| Callsign | CAL5314 |
|---|---|
| Flight time | 2h 3m |
| Altitude | 33000 |
| Route | MOLKA1C MOLKA M750 IMPAL Y755 CARDS |
| Aircraft | B77L/H-SDE1E2E3FGHIJ1J2J3J4J5M1P2RWY/LB1D1 |
Departure
| Time | 2026-05-04 12:18 |
|---|---|
| Airport | Taiwan Taoyuan International Airport (RCTP) |
Arrival
| Time | 2026-05-04 14:21 |
|---|---|
| Airport | Chubu Centrair International Airport (RJGG) |
| Time | Latitude | Longitude | Altitude | Speed | Heading |
|---|---|---|---|---|---|
| 2026-05-04 11:36 | 25.09231 | 121.24585 | 105 ft | 0 kts | 139° |
| 2026-05-04 11:58 | 25.09238 | 121.24577 | 106 ft | 4 kts | 138° |
| 2026-05-04 11:59 | 25.09256 | 121.24560 | 105 ft | 4 kts | 138° |
| 2026-05-04 11:59 | 25.09275 | 121.24542 | 105 ft | 4 kts | 139° |
| 2026-05-04 11:59 | 25.09293 | 121.24524 | 105 ft | 4 kts | 144° |
| 2026-05-04 11:59 | 25.09314 | 121.24512 | 107 ft | 4 kts | 172° |
| 2026-05-04 12:00 | 25.09329 | 121.24516 | 105 ft | 3 kts | 229° |
| 2026-05-04 12:00 | 25.09344 | 121.24534 | 105 ft | 1 kts | 229° |
| 2026-05-04 12:04 | 25.09339 | 121.24528 | 105 ft | 1 kts | 229° |
| 2026-05-04 12:04 | 25.09332 | 121.24519 | 105 ft | 2 kts | 229° |
| 2026-05-04 12:04 | 25.09322 | 121.24507 | 105 ft | 2 kts | 229° |
| 2026-05-04 12:05 | 25.09306 | 121.24487 | 107 ft | 6 kts | 229° |
| 2026-05-04 12:05 | 25.09269 | 121.24440 | 107 ft | 9 kts | 229° |
| 2026-05-04 12:05 | 25.09225 | 121.24383 | 106 ft | 10 kts | 229° |
| 2026-05-04 12:05 | 25.09181 | 121.24326 | 105 ft | 10 kts | 229° |
| 2026-05-04 12:06 | 25.09137 | 121.24270 | 107 ft | 10 kts | 229° |
| 2026-05-04 12:06 | 25.09095 | 121.24218 | 108 ft | 8 kts | 229° |
| 2026-05-04 12:06 | 25.09074 | 121.24191 | 105 ft | 0 kts | 229° |
| 2026-05-04 12:09 | 25.09074 | 121.24190 | 105 ft | 1 kts | 229° |
| 2026-05-04 12:09 | 25.09062 | 121.24175 | 105 ft | 4 kts | 229° |
| 2026-05-04 12:09 | 25.09043 | 121.24150 | 105 ft | 4 kts | 229° |
| 2026-05-04 12:09 | 25.09023 | 121.24125 | 107 ft | 5 kts | 229° |
| 2026-05-04 12:10 | 25.08993 | 121.24088 | 107 ft | 8 kts | 229° |
| 2026-05-04 12:10 | 25.08947 | 121.24029 | 105 ft | 12 kts | 229° |
| 2026-05-04 12:10 | 25.08897 | 121.23964 | 107 ft | 10 kts | 229° |
| 2026-05-04 12:10 | 25.08852 | 121.23907 | 106 ft | 10 kts | 229° |
| 2026-05-04 12:11 | 25.08811 | 121.23855 | 108 ft | 8 kts | 229° |
| 2026-05-04 12:11 | 25.08773 | 121.23807 | 106 ft | 9 kts | 229° |
| 2026-05-04 12:11 | 25.08721 | 121.23741 | 107 ft | 14 kts | 229° |
| 2026-05-04 12:11 | 25.08654 | 121.23656 | 105 ft | 16 kts | 229° |
| 2026-05-04 12:12 | 25.08579 | 121.23560 | 108 ft | 18 kts | 229° |
| 2026-05-04 12:12 | 25.08492 | 121.23450 | 105 ft | 21 kts | 229° |
| 2026-05-04 12:12 | 25.08389 | 121.23316 | 105 ft | 25 kts | 230° |
| 2026-05-04 12:12 | 25.08269 | 121.23166 | 106 ft | 25 kts | 229° |
| 2026-05-04 12:13 | 25.08158 | 121.23025 | 105 ft | 25 kts | 229° |
| 2026-05-04 12:14 | 25.07392 | 121.22050 | 107 ft | 25 kts | 229° |
| 2026-05-04 12:15 | 25.07286 | 121.21915 | 106 ft | 20 kts | 229° |
| 2026-05-04 12:15 | 25.07233 | 121.21848 | 105 ft | 16 kts | 229° |
| 2026-05-04 12:15 | 25.07180 | 121.21779 | 106 ft | 8 kts | 236° |
| 2026-05-04 12:15 | 25.07187 | 121.21724 | 108 ft | 8 kts | 311° |
| 2026-05-04 12:16 | 25.07229 | 121.21689 | 104 ft | 8 kts | 320° |
| 2026-05-04 12:16 | 25.07270 | 121.21651 | 107 ft | 8 kts | 320° |
| 2026-05-04 12:16 | 25.07318 | 121.21635 | 106 ft | 8 kts | 20° |
| 2026-05-04 12:16 | 25.07357 | 121.21682 | 106 ft | 14 kts | 49° |
| 2026-05-04 12:17 | 25.07512 | 121.21880 | 107 ft | 63 kts | 49° |
| 2026-05-04 12:17 | 25.07932 | 121.22415 | 108 ft | 120 kts | 49° |
| 2026-05-04 12:17 | 25.08583 | 121.23249 | 118 ft | 162 kts | 52° |
| 2026-05-04 12:17 | 25.09316 | 121.24195 | 607 ft | 164 kts | 53° |
| 2026-05-04 12:18 | 25.10084 | 121.25170 | 1104 ft | 170 kts | 54° |
| 2026-05-04 12:18 | 25.10877 | 121.26179 | 1538 ft | 185 kts | 54° |
| 2026-05-04 12:18 | 25.11768 | 121.27322 | 1779 ft | 208 kts | 53° |
| 2026-05-04 12:18 | 25.12747 | 121.28574 | 2218 ft | 223 kts | 54° |
| 2026-05-04 12:19 | 25.13776 | 121.29900 | 2799 ft | 232 kts | 54° |
| 2026-05-04 12:19 | 25.14843 | 121.31284 | 3423 ft | 241 kts | 54° |
| 2026-05-04 12:19 | 25.15955 | 121.32725 | 4052 ft | 252 kts | 53° |
| 2026-05-04 12:19 | 25.17112 | 121.34224 | 4682 ft | 262 kts | 52° |
| 2026-05-04 12:20 | 25.18331 | 121.35803 | 5154 ft | 278 kts | 53° |
| 2026-05-04 12:20 | 25.19606 | 121.37466 | 5625 ft | 287 kts | 51° |
| 2026-05-04 12:20 | 25.20916 | 121.39172 | 6275 ft | 290 kts | 49° |
| 2026-05-04 12:20 | 25.22251 | 121.40904 | 6765 ft | 302 kts | 48° |
| 2026-05-04 12:21 | 25.23549 | 121.42740 | 7338 ft | 308 kts | 61° |
| 2026-05-04 12:21 | 25.24189 | 121.44985 | 7947 ft | 307 kts | 80° |
| 2026-05-04 12:21 | 25.24660 | 121.47301 | 8604 ft | 312 kts | 76° |
| 2026-05-04 12:21 | 25.25217 | 121.49648 | 9233 ft | 318 kts | 76° |
| 2026-05-04 12:22 | 25.25796 | 121.52020 | 9925 ft | 321 kts | 75° |
| 2026-05-04 12:22 | 25.26382 | 121.54430 | 10368 ft | 332 kts | 75° |
| 2026-05-04 12:22 | 25.26994 | 121.56979 | 10512 ft | 354 kts | 75° |
| 2026-05-04 12:22 | 25.27639 | 121.59685 | 10680 ft | 375 kts | 75° |
| 2026-05-04 12:23 | 25.28318 | 121.62554 | 10799 ft | 397 kts | 75° |
| 2026-05-04 12:23 | 25.29029 | 121.65558 | 11179 ft | 410 kts | 75° |
| 2026-05-04 12:23 | 25.29757 | 121.68642 | 11725 ft | 419 kts | 75° |
| 2026-05-04 12:23 | 25.30498 | 121.71790 | 12525 ft | 425 kts | 76° |
| 2026-05-04 12:24 | 25.31241 | 121.74965 | 13495 ft | 429 kts | 75° |
| 2026-05-04 12:24 | 25.31993 | 121.78162 | 14323 ft | 436 kts | 75° |
| 2026-05-04 12:24 | 25.32763 | 121.81434 | 15028 ft | 444 kts | 76° |
| 2026-05-04 12:24 | 25.33539 | 121.84760 | 15650 ft | 449 kts | 75° |
| 2026-05-04 12:25 | 25.34322 | 121.88122 | 16289 ft | 454 kts | 75° |
| 2026-05-04 12:25 | 25.35114 | 121.91511 | 16910 ft | 458 kts | 75° |
| 2026-05-04 12:25 | 25.35915 | 121.94940 | 17516 ft | 463 kts | 75° |
| 2026-05-04 12:25 | 25.36724 | 121.98406 | 18108 ft | 468 kts | 75° |
| 2026-05-04 12:26 | 25.37538 | 122.01902 | 18654 ft | 472 kts | 75° |
| 2026-05-04 12:26 | 25.38350 | 122.05391 | 19147 ft | 477 kts | 76° |
| 2026-05-04 12:26 | 25.39179 | 122.08957 | 19608 ft | 482 kts | 76° |
| 2026-05-04 12:26 | 25.40029 | 122.12621 | 20050 ft | 488 kts | 76° |
| 2026-05-04 12:27 | 25.40895 | 122.16210 | 20579 ft | 491 kts | 72° |
| 2026-05-04 12:27 | 25.42115 | 122.19743 | 21103 ft | 493 kts | 64° |
| 2026-05-04 12:27 | 25.43706 | 122.23111 | 21611 ft | 496 kts | 58° |
| 2026-05-04 12:27 | 25.45624 | 122.26284 | 22087 ft | 498 kts | 50° |
| 2026-05-04 12:28 | 25.47766 | 122.29310 | 22554 ft | 501 kts | 49° |
| 2026-05-04 12:28 | 25.49945 | 122.32339 | 23020 ft | 505 kts | 49° |
| 2026-05-04 12:28 | 25.52146 | 122.35396 | 23488 ft | 509 kts | 49° |
| 2026-05-04 12:28 | 25.54351 | 122.38478 | 23917 ft | 512 kts | 49° |
| 2026-05-04 12:29 | 25.56561 | 122.41590 | 24294 ft | 516 kts | 49° |
| 2026-05-04 12:29 | 25.58788 | 122.44745 | 24521 ft | 524 kts | 50° |
| 2026-05-04 12:29 | 25.61040 | 122.47949 | 24820 ft | 529 kts | 50° |
| 2026-05-04 12:29 | 25.63299 | 122.51174 | 25240 ft | 530 kts | 50° |
| 2026-05-04 12:30 | 25.65560 | 122.54408 | 25640 ft | 532 kts | 50° |
| 2026-05-04 12:30 | 25.67836 | 122.57665 | 25992 ft | 536 kts | 49° |
| 2026-05-04 12:30 | 25.70127 | 122.60943 | 26325 ft | 540 kts | 49° |
| 2026-05-04 12:30 | 25.72433 | 122.64242 | 26649 ft | 544 kts | 49° |
| 2026-05-04 12:31 | 25.74759 | 122.67572 | 26974 ft | 548 kts | 49° |
| 2026-05-04 12:31 | 25.77100 | 122.70925 | 27401 ft | 550 kts | 49° |
| 2026-05-04 12:31 | 25.79441 | 122.74284 | 27865 ft | 551 kts | 49° |
| 2026-05-04 12:31 | 25.81789 | 122.77652 | 28239 ft | 554 kts | 49° |
| 2026-05-04 12:32 | 25.84153 | 122.81046 | 28582 ft | 557 kts | 49° |
| 2026-05-04 12:32 | 25.88919 | 122.87895 | 29209 ft | 564 kts | 49° |
| 2026-05-04 12:32 | 25.91326 | 122.91356 | 29443 ft | 568 kts | 49° |
| 2026-05-04 12:33 | 25.93754 | 122.94851 | 29662 ft | 573 kts | 49° |
| 2026-05-04 12:33 | 25.96179 | 122.98349 | 30234 ft | 570 kts | 50° |
| 2026-05-04 12:33 | 25.98580 | 123.01819 | 30903 ft | 563 kts | 49° |
| 2026-05-04 12:33 | 26.00962 | 123.05260 | 31380 ft | 562 kts | 49° |
| 2026-05-04 12:34 | 26.03348 | 123.08707 | 31734 ft | 563 kts | 49° |
| 2026-05-04 12:34 | 26.05744 | 123.12167 | 32054 ft | 565 kts | 49° |
| 2026-05-04 12:34 | 26.08140 | 123.15631 | 32376 ft | 567 kts | 48° |
| 2026-05-04 12:34 | 26.10544 | 123.19109 | 32639 ft | 568 kts | 48° |
| 2026-05-04 12:35 | 26.12949 | 123.22593 | 32990 ft | 568 kts | 48° |
| 2026-05-04 12:35 | 26.15362 | 123.26091 | 33222 ft | 571 kts | 48° |
| 2026-05-04 12:35 | 26.17788 | 123.29608 | 33180 ft | 574 kts | 48° |
| 2026-05-04 12:36 | 26.22619 | 123.36631 | 33172 ft | 567 kts | 48° |
| 2026-05-04 12:36 | 26.27403 | 123.43596 | 33167 ft | 565 kts | 48° |
| 2026-05-04 12:37 | 26.32179 | 123.50552 | 33179 ft | 565 kts | 48° |
| 2026-05-04 12:37 | 26.36968 | 123.57537 | 33181 ft | 568 kts | 48° |
| 2026-05-04 12:38 | 26.41742 | 123.64514 | 33184 ft | 571 kts | 48° |
| 2026-05-04 12:38 | 26.46564 | 123.71575 | 33195 ft | 573 kts | 48° |
| 2026-05-04 12:39 | 26.51395 | 123.78659 | 33193 ft | 573 kts | 48° |
| 2026-05-04 12:39 | 26.56227 | 123.85755 | 33181 ft | 574 kts | 48° |
| 2026-05-04 12:40 | 26.61058 | 123.92864 | 33180 ft | 574 kts | 49° |
| 2026-05-04 12:40 | 26.65879 | 123.99964 | 33174 ft | 573 kts | 48° |
| 2026-05-04 12:41 | 26.70856 | 124.06875 | 33176 ft | 568 kts | 45° |
| 2026-05-04 12:41 | 26.75983 | 124.13584 | 33178 ft | 567 kts | 44° |
| 2026-05-04 12:42 | 26.81065 | 124.20317 | 33183 ft | 566 kts | 45° |
| 2026-05-04 12:42 | 26.86094 | 124.27089 | 33189 ft | 565 kts | 45° |
| 2026-05-04 12:43 | 26.91113 | 124.33868 | 33183 ft | 565 kts | 45° |
| 2026-05-04 12:43 | 26.96135 | 124.40647 | 33183 ft | 566 kts | 45° |
| 2026-05-04 12:44 | 27.01167 | 124.47437 | 33180 ft | 566 kts | 45° |
| 2026-05-04 12:44 | 27.06206 | 124.54227 | 33219 ft | 566 kts | 45° |
| 2026-05-04 12:45 | 27.11257 | 124.61040 | 33192 ft | 569 kts | 45° |
| 2026-05-04 12:45 | 27.16318 | 124.67884 | 33193 ft | 570 kts | 45° |
| 2026-05-04 12:46 | 27.21383 | 124.74749 | 33166 ft | 571 kts | 45° |
| 2026-05-04 12:46 | 27.26442 | 124.81615 | 33192 ft | 571 kts | 46° |
| 2026-05-04 12:47 | 27.31510 | 124.88504 | 33190 ft | 572 kts | 46° |
| 2026-05-04 12:47 | 27.36544 | 124.95358 | 33179 ft | 572 kts | 46° |
| 2026-05-04 12:48 | 27.41613 | 125.02260 | 33213 ft | 571 kts | 45° |
| 2026-05-04 12:48 | 27.46708 | 125.09134 | 33184 ft | 572 kts | 45° |
| 2026-05-04 12:49 | 27.51817 | 125.16015 | 33183 ft | 573 kts | 45° |
| 2026-05-04 12:49 | 27.56922 | 125.22913 | 33183 ft | 573 kts | 45° |
| 2026-05-04 12:50 | 27.62015 | 125.29815 | 33189 ft | 573 kts | 45° |
| 2026-05-04 12:50 | 27.67114 | 125.36740 | 33183 ft | 574 kts | 46° |
| 2026-05-04 12:51 | 27.72213 | 125.43676 | 33185 ft | 574 kts | 46° |
| 2026-05-04 12:51 | 27.77310 | 125.50618 | 33193 ft | 575 kts | 46° |
| 2026-05-04 12:52 | 27.82414 | 125.57579 | 33182 ft | 576 kts | 46° |
| 2026-05-04 12:52 | 27.87516 | 125.64551 | 33183 ft | 576 kts | 46° |
| 2026-05-04 12:53 | 27.92620 | 125.71539 | 33182 ft | 576 kts | 46° |
| 2026-05-04 12:53 | 27.97727 | 125.78539 | 33174 ft | 577 kts | 46° |
| 2026-05-04 12:54 | 28.02832 | 125.85550 | 33190 ft | 577 kts | 46° |
| 2026-05-04 12:54 | 28.07936 | 125.92570 | 33180 ft | 578 kts | 46° |
| 2026-05-04 12:55 | 28.13043 | 125.99606 | 33188 ft | 579 kts | 46° |
| 2026-05-04 12:55 | 28.18163 | 126.06671 | 33186 ft | 580 kts | 46° |
| 2026-05-04 12:56 | 28.23286 | 126.13752 | 33188 ft | 582 kts | 46° |
| 2026-05-04 12:56 | 28.28418 | 126.20858 | 33221 ft | 583 kts | 46° |
| 2026-05-04 12:57 | 28.33561 | 126.27991 | 33184 ft | 584 kts | 46° |
| 2026-05-04 12:57 | 28.38702 | 126.35134 | 33177 ft | 584 kts | 46° |
| 2026-05-04 12:58 | 28.43840 | 126.42285 | 33184 ft | 584 kts | 46° |
| 2026-05-04 12:58 | 28.48938 | 126.49392 | 33184 ft | 584 kts | 46° |
| 2026-05-04 12:59 | 28.54091 | 126.56588 | 33172 ft | 582 kts | 46° |
| 2026-05-04 12:59 | 28.59193 | 126.63725 | 33180 ft | 581 kts | 46° |
| 2026-05-04 13:00 | 28.63426 | 126.69654 | 33181 ft | 581 kts | 46° |
| 2026-05-04 13:00 | 28.69353 | 126.77970 | 33188 ft | 582 kts | 46° |
| 2026-05-04 13:01 | 28.74455 | 126.85143 | 33192 ft | 583 kts | 46° |
| 2026-05-04 13:01 | 28.78727 | 126.91159 | 33193 ft | 584 kts | 46° |
| 2026-05-04 13:02 | 28.84667 | 126.99537 | 33163 ft | 585 kts | 46° |
| 2026-05-04 13:02 | 28.89779 | 127.06763 | 33189 ft | 585 kts | 46° |
| 2026-05-04 13:03 | 28.94057 | 127.12818 | 33232 ft | 585 kts | 46° |
| 2026-05-04 13:03 | 28.99136 | 127.20019 | 33188 ft | 586 kts | 46° |
| 2026-05-04 13:04 | 29.04249 | 127.27281 | 33166 ft | 586 kts | 47° |
| 2026-05-04 13:04 | 29.09357 | 127.34549 | 33177 ft | 586 kts | 47° |
| 2026-05-04 13:05 | 29.14463 | 127.41824 | 33191 ft | 587 kts | 47° |
| 2026-05-04 13:05 | 29.19574 | 127.49122 | 33150 ft | 587 kts | 47° |
| 2026-05-04 13:06 | 29.24670 | 127.56414 | 33168 ft | 586 kts | 47° |
| 2026-05-04 13:06 | 29.29763 | 127.63710 | 33175 ft | 587 kts | 47° |
| 2026-05-04 13:07 | 29.34867 | 127.71036 | 33178 ft | 588 kts | 47° |
| 2026-05-04 13:07 | 29.39956 | 127.78356 | 33169 ft | 587 kts | 47° |
| 2026-05-04 13:08 | 29.45042 | 127.85682 | 33178 ft | 588 kts | 47° |
| 2026-05-04 13:08 | 29.50135 | 127.93034 | 33176 ft | 588 kts | 47° |
| 2026-05-04 13:09 | 29.55223 | 128.00388 | 33161 ft | 588 kts | 47° |
| 2026-05-04 13:09 | 29.60316 | 128.07747 | 33161 ft | 589 kts | 47° |
| 2026-05-04 13:10 | 29.65411 | 128.15121 | 33176 ft | 589 kts | 47° |
| 2026-05-04 13:10 | 29.70498 | 128.22503 | 33164 ft | 589 kts | 47° |
| 2026-05-04 13:11 | 29.75580 | 128.29893 | 33166 ft | 589 kts | 47° |
| 2026-05-04 13:11 | 29.80626 | 128.37242 | 33174 ft | 589 kts | 47° |
| 2026-05-04 13:12 | 29.85697 | 128.44642 | 33169 ft | 589 kts | 47° |
| 2026-05-04 13:12 | 29.90767 | 128.52053 | 33178 ft | 589 kts | 47° |
| 2026-05-04 13:13 | 29.95835 | 128.59477 | 33169 ft | 589 kts | 47° |
| 2026-05-04 13:13 | 30.00895 | 128.66901 | 33140 ft | 588 kts | 47° |
| 2026-05-04 13:14 | 30.05946 | 128.74327 | 33161 ft | 588 kts | 47° |
| 2026-05-04 13:14 | 30.10989 | 128.81753 | 33165 ft | 588 kts | 47° |
| 2026-05-04 13:15 | 30.16028 | 128.89188 | 33152 ft | 588 kts | 47° |
| 2026-05-04 13:15 | 30.21067 | 128.96639 | 33168 ft | 588 kts | 47° |
| 2026-05-04 13:16 | 30.26103 | 129.04094 | 33164 ft | 588 kts | 47° |
| 2026-05-04 13:16 | 30.31135 | 129.11556 | 33190 ft | 588 kts | 48° |
| 2026-05-04 13:17 | 30.36164 | 129.19028 | 33161 ft | 588 kts | 48° |
| 2026-05-04 13:19 | 30.39016 | 129.23273 | 33158 ft | 587 kts | 48° |
| 2026-05-04 13:19 | 30.43995 | 129.30695 | 33157 ft | 587 kts | 48° |
| 2026-05-04 13:20 | 30.48997 | 129.38166 | 33141 ft | 586 kts | 48° |
| 2026-05-04 13:20 | 30.53989 | 129.45634 | 33160 ft | 585 kts | 48° |
| 2026-05-04 13:21 | 30.58939 | 129.53054 | 33157 ft | 585 kts | 48° |
| 2026-05-04 13:21 | 30.63849 | 129.60429 | 33138 ft | 584 kts | 48° |
| 2026-05-04 13:22 | 30.68806 | 129.67887 | 33153 ft | 583 kts | 48° |
| 2026-05-04 13:22 | 30.73749 | 129.75339 | 33181 ft | 582 kts | 49° |
| 2026-05-04 13:23 | 30.78682 | 129.82791 | 33140 ft | 581 kts | 49° |
| 2026-05-04 13:23 | 30.83597 | 129.90232 | 33150 ft | 580 kts | 49° |
| 2026-05-04 13:24 | 30.87286 | 129.96562 | 33207 ft | 582 kts | 56° |
| 2026-05-04 13:24 | 30.91519 | 130.04620 | 33139 ft | 584 kts | 57° |
| 2026-05-04 13:25 | 30.97849 | 130.16723 | 33154 ft | 583 kts | 56° |
| 2026-05-04 13:25 | 31.02100 | 130.24761 | 33163 ft | 583 kts | 56° |
| 2026-05-04 13:26 | 31.06358 | 130.32801 | 33156 ft | 582 kts | 56° |
| 2026-05-04 13:26 | 31.10600 | 130.40843 | 33153 ft | 582 kts | 56° |
| 2026-05-04 13:27 | 31.14822 | 130.48870 | 33139 ft | 582 kts | 57° |
| 2026-05-04 13:27 | 31.19053 | 130.56932 | 33138 ft | 582 kts | 57° |
| 2026-05-04 13:28 | 31.23274 | 130.64991 | 33147 ft | 581 kts | 57° |
| 2026-05-04 13:28 | 31.27483 | 130.73042 | 33156 ft | 581 kts | 57° |
| 2026-05-04 13:29 | 31.31691 | 130.81111 | 33156 ft | 581 kts | 57° |
| 2026-05-04 13:29 | 31.35895 | 130.89187 | 33140 ft | 581 kts | 57° |
| 2026-05-04 13:30 | 31.40068 | 130.97220 | 33148 ft | 581 kts | 57° |
| 2026-05-04 13:30 | 31.44261 | 131.05308 | 33147 ft | 581 kts | 57° |
| 2026-05-04 13:31 | 31.48445 | 131.13398 | 33133 ft | 581 kts | 57° |
| 2026-05-04 13:31 | 31.52635 | 131.21518 | 33129 ft | 583 kts | 57° |
| 2026-05-04 13:32 | 31.56829 | 131.29661 | 33145 ft | 584 kts | 57° |
| 2026-05-04 13:32 | 31.61027 | 131.37819 | 33164 ft | 584 kts | 58° |
| 2026-05-04 13:33 | 31.65197 | 131.45971 | 33102 ft | 589 kts | 58° |
| 2026-05-04 13:33 | 31.69417 | 131.54226 | 33121 ft | 591 kts | 58° |
| 2026-05-04 13:34 | 31.73636 | 131.62503 | 33144 ft | 589 kts | 58° |
| 2026-05-04 13:34 | 31.77840 | 131.70764 | 33115 ft | 588 kts | 58° |
| 2026-05-04 13:35 | 31.84092 | 131.83087 | 33165 ft | 584 kts | 59° |
| 2026-05-04 13:36 | 31.88240 | 131.91284 | 33122 ft | 583 kts | 59° |
| 2026-05-04 13:36 | 31.92374 | 131.99473 | 33100 ft | 581 kts | 59° |
| 2026-05-04 13:37 | 31.96493 | 132.07650 | 33142 ft | 581 kts | 59° |
| 2026-05-04 13:37 | 32.00612 | 132.15845 | 33123 ft | 582 kts | 59° |
| 2026-05-04 13:38 | 32.04735 | 132.24065 | 33114 ft | 582 kts | 59° |
| 2026-05-04 13:38 | 32.08856 | 132.32301 | 33123 ft | 585 kts | 59° |
| 2026-05-04 13:39 | 32.12962 | 132.40598 | 33127 ft | 587 kts | 62° |
| 2026-05-04 13:39 | 32.16678 | 132.49188 | 33103 ft | 588 kts | 64° |
| 2026-05-04 13:40 | 32.20285 | 132.57859 | 33117 ft | 590 kts | 64° |
| 2026-05-04 13:40 | 32.23921 | 132.66553 | 33113 ft | 591 kts | 64° |
| 2026-05-04 13:41 | 32.27561 | 132.75188 | 33149 ft | 591 kts | 64° |
| 2026-05-04 13:41 | 32.31256 | 132.83954 | 33118 ft | 592 kts | 64° |
| 2026-05-04 13:42 | 32.36746 | 132.97034 | 33115 ft | 592 kts | 64° |
| 2026-05-04 13:42 | 32.40396 | 133.05764 | 33103 ft | 592 kts | 64° |
| 2026-05-04 13:43 | 32.44011 | 133.14432 | 33118 ft | 591 kts | 64° |
| 2026-05-04 13:43 | 32.47641 | 133.23156 | 33095 ft | 591 kts | 64° |
| 2026-05-04 13:44 | 32.51268 | 133.31894 | 33103 ft | 590 kts | 65° |
| 2026-05-04 13:44 | 32.54881 | 133.40622 | 33114 ft | 590 kts | 65° |
| 2026-05-04 13:45 | 32.58500 | 133.49352 | 33133 ft | 590 kts | 64° |
| 2026-05-04 13:45 | 32.62148 | 133.58085 | 33109 ft | 591 kts | 64° |
| 2026-05-04 13:46 | 32.65775 | 133.66850 | 33084 ft | 592 kts | 65° |
| 2026-05-04 13:46 | 32.69359 | 133.75649 | 33108 ft | 593 kts | 65° |
| 2026-05-04 13:47 | 32.72942 | 133.84469 | 33085 ft | 594 kts | 65° |
| 2026-05-04 13:47 | 32.76531 | 133.93301 | 33138 ft | 594 kts | 65° |
| 2026-05-04 13:48 | 32.79520 | 134.00670 | 33099 ft | 596 kts | 65° |
| 2026-05-04 13:48 | 32.83336 | 134.11233 | 33085 ft | 594 kts | 75° |
| 2026-05-04 13:49 | 32.85638 | 134.20648 | 33127 ft | 594 kts | 77° |
| 2026-05-04 13:49 | 32.87516 | 134.28514 | 33088 ft | 595 kts | 77° |
| 2026-05-04 13:50 | 32.89834 | 134.37966 | 33100 ft | 595 kts | 76° |
| 2026-05-04 13:50 | 32.92185 | 134.47422 | 33106 ft | 595 kts | 76° |
| 2026-05-04 13:51 | 32.94527 | 134.56876 | 33091 ft | 596 kts | 76° |
| 2026-05-04 13:51 | 32.96857 | 134.66353 | 33073 ft | 595 kts | 77° |
| 2026-05-04 13:52 | 33.00316 | 134.80490 | 33095 ft | 595 kts | 77° |
| 2026-05-04 13:53 | 33.02589 | 134.89831 | 32642 ft | 581 kts | 77° |
| 2026-05-04 13:53 | 33.03704 | 134.94438 | 32215 ft | 576 kts | 77° |
| 2026-05-04 13:53 | 33.04803 | 134.98991 | 31798 ft | 570 kts | 77° |
| 2026-05-04 13:54 | 33.06971 | 135.07993 | 30982 ft | 559 kts | 77° |
| 2026-05-04 13:54 | 33.08044 | 135.12418 | 30590 ft | 553 kts | 76° |
| 2026-05-04 13:54 | 33.11521 | 135.20514 | 29728 ft | 546 kts | 51° |
| 2026-05-04 13:55 | 33.13985 | 135.23923 | 29276 ft | 538 kts | 40° |
| 2026-05-04 13:55 | 33.19747 | 135.29275 | 28466 ft | 519 kts | 29° |
| 2026-05-04 13:55 | 33.22665 | 135.31788 | 28037 ft | 515 kts | 30° |
| 2026-05-04 13:56 | 33.25542 | 135.34311 | 27634 ft | 511 kts | 30° |
| 2026-05-04 13:56 | 33.28380 | 135.36846 | 27222 ft | 508 kts | 30° |
| 2026-05-04 13:56 | 33.33608 | 135.41581 | 26452 ft | 501 kts | 30° |
| 2026-05-04 13:57 | 33.36362 | 135.44077 | 26049 ft | 498 kts | 30° |
| 2026-05-04 13:57 | 33.39113 | 135.46571 | 25632 ft | 495 kts | 30° |
| 2026-05-04 13:58 | 33.47275 | 135.53989 | 24390 ft | 488 kts | 30° |
| 2026-05-04 13:58 | 33.52659 | 135.58887 | 23574 ft | 485 kts | 31° |
| 2026-05-04 13:58 | 33.55324 | 135.61319 | 23079 ft | 483 kts | 30° |
| 2026-05-04 13:59 | 33.57984 | 135.63745 | 22658 ft | 479 kts | 31° |
| 2026-05-04 13:59 | 33.60625 | 135.66165 | 22245 ft | 476 kts | 31° |
| 2026-05-04 13:59 | 33.65861 | 135.70943 | 21400 ft | 470 kts | 31° |
| 2026-05-04 14:00 | 33.68459 | 135.73317 | 20997 ft | 467 kts | 31° |
| 2026-05-04 14:00 | 33.73609 | 135.77979 | 20181 ft | 460 kts | 31° |
| 2026-05-04 14:00 | 33.76156 | 135.80274 | 19754 ft | 457 kts | 31° |
| 2026-05-04 14:01 | 33.78692 | 135.82565 | 19329 ft | 454 kts | 32° |
| 2026-05-04 14:01 | 33.81167 | 135.84809 | 18924 ft | 450 kts | 32° |
| 2026-05-04 14:01 | 33.86060 | 135.89259 | 17994 ft | 426 kts | 32° |
| 2026-05-04 14:02 | 33.88375 | 135.91366 | 17566 ft | 410 kts | 32° |
| 2026-05-04 14:02 | 33.90640 | 135.93422 | 17185 ft | 406 kts | 33° |
| 2026-05-04 14:02 | 33.92886 | 135.95455 | 16752 ft | 402 kts | 32° |
| 2026-05-04 14:02 | 33.95112 | 135.97459 | 16354 ft | 396 kts | 32° |
| 2026-05-04 14:03 | 33.97297 | 135.99438 | 15991 ft | 391 kts | 32° |
| 2026-05-04 14:03 | 33.99451 | 136.01410 | 15600 ft | 388 kts | 32° |
| 2026-05-04 14:03 | 34.01598 | 136.03361 | 15198 ft | 385 kts | 31° |
| 2026-05-04 14:03 | 34.03733 | 136.05299 | 14798 ft | 383 kts | 31° |
| 2026-05-04 14:04 | 34.07952 | 136.09135 | 14021 ft | 377 kts | 31° |
| 2026-05-04 14:04 | 34.10042 | 136.11046 | 13616 ft | 376 kts | 31° |
| 2026-05-04 14:04 | 34.12129 | 136.12946 | 13164 ft | 375 kts | 31° |
| 2026-05-04 14:05 | 34.16282 | 136.16725 | 12360 ft | 369 kts | 31° |
| 2026-05-04 14:05 | 34.18311 | 136.18565 | 11900 ft | 358 kts | 31° |
| 2026-05-04 14:05 | 34.20252 | 136.20377 | 11600 ft | 351 kts | 34° |
| 2026-05-04 14:06 | 34.22141 | 136.22217 | 11246 ft | 346 kts | 31° |
| 2026-05-04 14:06 | 34.24050 | 136.23924 | 10814 ft | 335 kts | 29° |
| 2026-05-04 14:06 | 34.25896 | 136.25553 | 10566 ft | 319 kts | 30° |
| 2026-05-04 14:06 | 34.27625 | 136.27123 | 10469 ft | 306 kts | 30° |
| 2026-05-04 14:07 | 34.29293 | 136.28642 | 10329 ft | 295 kts | 30° |
| 2026-05-04 14:07 | 34.30903 | 136.30101 | 10194 ft | 284 kts | 30° |
| 2026-05-04 14:07 | 34.32470 | 136.31541 | 10102 ft | 285 kts | 30° |
| 2026-05-04 14:07 | 34.34107 | 136.32994 | 9801 ft | 297 kts | 30° |
| 2026-05-04 14:08 | 34.35778 | 136.34493 | 9411 ft | 299 kts | 30° |
| 2026-05-04 14:08 | 34.37417 | 136.35995 | 9064 ft | 296 kts | 30° |
| 2026-05-04 14:08 | 34.39043 | 136.37496 | 8747 ft | 290 kts | 29° |
| 2026-05-04 14:08 | 34.40638 | 136.38958 | 8389 ft | 284 kts | 28° |
| 2026-05-04 14:09 | 34.42953 | 136.42644 | 7787 ft | 280 kts | 63° |
| 2026-05-04 14:09 | 34.43665 | 136.44818 | 7463 ft | 276 kts | 60° |
| 2026-05-04 14:10 | 34.45219 | 136.49148 | 6877 ft | 284 kts | 59° |
| 2026-05-04 14:10 | 34.45977 | 136.51231 | 6569 ft | 281 kts | 59° |
| 2026-05-04 14:10 | 34.46759 | 136.53381 | 6260 ft | 277 kts | 59° |
| 2026-05-04 14:10 | 34.47525 | 136.55496 | 5970 ft | 271 kts | 59° |
| 2026-05-04 14:11 | 34.48282 | 136.57569 | 5661 ft | 267 kts | 58° |
| 2026-05-04 14:11 | 34.49754 | 136.61607 | 5075 ft | 257 kts | 58° |
| 2026-05-04 14:11 | 34.50455 | 136.63543 | 4977 ft | 248 kts | 57° |
| 2026-05-04 14:12 | 34.51175 | 136.65502 | 4932 ft | 262 kts | 58° |
| 2026-05-04 14:12 | 34.51929 | 136.67553 | 4833 ft | 269 kts | 58° |
| 2026-05-04 14:12 | 34.53352 | 136.71477 | 4656 ft | 263 kts | 58° |
| 2026-05-04 14:13 | 34.54037 | 136.73367 | 4549 ft | 260 kts | 58° |
| 2026-05-04 14:13 | 34.54765 | 136.75372 | 4472 ft | 259 kts | 58° |
| 2026-05-04 14:13 | 34.55489 | 136.77366 | 4394 ft | 258 kts | 57° |
| 2026-05-04 14:13 | 34.56211 | 136.79355 | 4313 ft | 257 kts | 57° |
| 2026-05-04 14:14 | 34.56930 | 136.81337 | 4223 ft | 256 kts | 57° |
| 2026-05-04 14:14 | 34.58404 | 136.85174 | 4032 ft | 239 kts | 43° |
| 2026-05-04 14:14 | 34.59607 | 136.86307 | 4006 ft | 205 kts | 8° |
| 2026-05-04 14:15 | 34.62206 | 136.86155 | 4064 ft | 186 kts | 346° |
| 2026-05-04 14:15 | 34.64642 | 136.85629 | 3929 ft | 169 kts | 345° |
| 2026-05-04 14:16 | 34.66862 | 136.85101 | 3537 ft | 157 kts | 345° |
| 2026-05-04 14:16 | 34.67910 | 136.84848 | 3307 ft | 153 kts | 345° |
| 2026-05-04 14:17 | 34.69967 | 136.84354 | 2901 ft | 152 kts | 345° |
| 2026-05-04 14:17 | 34.71012 | 136.84103 | 2712 ft | 154 kts | 345° |
| 2026-05-04 14:17 | 34.73070 | 136.83610 | 2279 ft | 146 kts | 344° |
| 2026-05-04 14:18 | 34.74051 | 136.83373 | 2071 ft | 142 kts | 345° |
| 2026-05-04 14:18 | 34.76007 | 136.82903 | 1708 ft | 146 kts | 345° |
| 2026-05-04 14:19 | 34.77997 | 136.82425 | 1309 ft | 142 kts | 344° |
| 2026-05-04 14:19 | 34.78952 | 136.82196 | 1101 ft | 138 kts | 344° |
| 2026-05-04 14:19 | 34.79891 | 136.81969 | 928 ft | 139 kts | 343° |
| 2026-05-04 14:19 | 34.80855 | 136.81737 | 748 ft | 143 kts | 343° |
| 2026-05-04 14:20 | 34.81845 | 136.81499 | 555 ft | 146 kts | 344° |
| 2026-05-04 14:20 | 34.82836 | 136.81269 | 366 ft | 144 kts | 345° |
| 2026-05-04 14:20 | 34.83811 | 136.81033 | 168 ft | 141 kts | 342° |
| 2026-05-04 14:21 | 34.85584 | 136.80599 | 26 ft | 108 kts | 349° |
| 2026-05-04 14:21 | 34.86179 | 136.80456 | 30 ft | 54 kts | 348° |
| 2026-05-04 14:21 | 34.86446 | 136.80411 | 30 ft | 33 kts | 3° |
| 2026-05-04 14:21 | 34.86617 | 136.80457 | 31 ft | 15 kts | 18° |
| 2026-05-04 14:22 | 34.86716 | 136.80495 | 32 ft | 15 kts | 18° |
| 2026-05-04 14:22 | 34.86783 | 136.80524 | 32 ft | 6 kts | 19° |
| 2026-05-04 14:22 | 34.86808 | 136.80561 | 32 ft | 6 kts | 71° |
| 2026-05-04 14:22 | 34.86816 | 136.80609 | 33 ft | 6 kts | 78° |
| 2026-05-04 14:23 | 34.86831 | 136.80697 | 33 ft | 5 kts | 78° |
| 2026-05-04 14:23 | 34.86850 | 136.80730 | 33 ft | 5 kts | 57° |
| 2026-05-04 14:23 | 34.86859 | 136.80769 | 33 ft | 5 kts | 75° |
| 2026-05-04 14:24 | 34.86867 | 136.80808 | 33 ft | 5 kts | 76° |
| 2026-05-04 14:24 | 34.86874 | 136.80844 | 33 ft | 2 kts | 76° |
| 2026-05-04 14:24 | 34.86876 | 136.80853 | 33 ft | 0 kts | 76° |